sensor_id;sensor_type;location;lat;lon;timestamp;P1;durP1;ratioP1;P2;durP2;ratioP2
40637;SDS011;26336;44.696;10.622;2022-11-20T00:01:57;59.90;;;35.33;;
40637;SDS011;26336;44.696;10.622;2022-11-20T00:05:01;60.47;;;34.93;;
40637;SDS011;26336;44.696;10.622;2022-11-20T00:08:06;65.22;;;37.13;;
40637;SDS011;26336;44.696;10.622;2022-11-20T00:11:11;64.78;;;35.35;;
40637;SDS011;26336;44.696;10.622;2022-11-20T00:14:19;61.47;;;35.30;;
40637;SDS011;26336;44.696;10.622;2022-11-20T00:17:23;57.07;;;34.73;;
40637;SDS011;26336;44.696;10.622;2022-11-20T00:20:30;65.43;;;35.03;;
40637;SDS011;26336;44.696;10.622;2022-11-20T00:23:34;64.90;;;35.43;;
40637;SDS011;26336;44.696;10.622;2022-11-20T00:26:38;62.47;;;36.30;;
40637;SDS011;26336;44.696;10.622;2022-11-20T00:29:42;60.57;;;35.20;;
40637;SDS011;26336;44.696;10.622;2022-11-20T00:32:46;58.97;;;36.63;;
40637;SDS011;26336;44.696;10.622;2022-11-20T00:35:49;57.27;;;33.97;;
40637;SDS011;26336;44.696;10.622;2022-11-20T00:38:54;55.90;;;33.00;;
40637;SDS011;26336;44.696;10.622;2022-11-20T00:41:59;57.90;;;32.63;;
40637;SDS011;26336;44.696;10.622;2022-11-20T00:45:03;59.47;;;32.37;;
40637;SDS011;26336;44.696;10.622;2022-11-20T00:48:08;55.23;;;32.70;;
40637;SDS011;26336;44.696;10.622;2022-11-20T00:51:13;57.20;;;33.73;;
40637;SDS011;26336;44.696;10.622;2022-11-20T00:54:18;62.77;;;36.23;;
40637;SDS011;26336;44.696;10.622;2022-11-20T00:57:22;60.30;;;33.97;;
40637;SDS011;26336;44.696;10.622;2022-11-20T01:00:25;62.07;;;35.93;;
40637;SDS011;26336;44.696;10.622;2022-11-20T01:03:37;65.77;;;38.77;;
40637;SDS011;26336;44.696;10.622;2022-11-20T01:06:47;64.40;;;37.07;;
40637;SDS011;26336;44.696;10.622;2022-11-20T01:09:50;64.67;;;36.90;;
40637;SDS011;26336;44.696;10.622;2022-11-20T01:12:54;56.40;;;33.60;;
40637;SDS011;26336;44.696;10.622;2022-11-20T01:16:18;56.20;;;33.40;;
40637;SDS011;26336;44.696;10.622;2022-11-20T01:19:23;53.07;;;32.13;;
40637;SDS011;26336;44.696;10.622;2022-11-20T01:22:27;51.80;;;31.30;;
40637;SDS011;26336;44.696;10.622;2022-11-20T01:25:31;50.03;;;31.77;;
40637;SDS011;26336;44.696;10.622;2022-11-20T01:28:37;55.87;;;32.23;;
40637;SDS011;26336;44.696;10.622;2022-11-20T01:31:42;59.47;;;32.83;;
40637;SDS011;26336;44.696;10.622;2022-11-20T01:34:46;52.13;;;31.60;;
40637;SDS011;26336;44.696;10.622;2022-11-20T01:37:50;55.07;;;31.00;;
40637;SDS011;26336;44.696;10.622;2022-11-20T01:40:55;49.20;;;31.23;;
40637;SDS011;26336;44.696;10.622;2022-11-20T01:43:59;48.03;;;30.17;;
40637;SDS011;26336;44.696;10.622;2022-11-20T01:47:04;49.43;;;29.30;;
40637;SDS011;26336;44.696;10.622;2022-11-20T01:53:21;55.37;;;33.80;;
40637;SDS011;26336;44.696;10.622;2022-11-20T01:56:37;49.07;;;30.30;;
40637;SDS011;26336;44.696;10.622;2022-11-20T01:59:47;47.80;;;30.03;;
40637;SDS011;26336;44.696;10.622;2022-11-20T02:02:58;47.57;;;29.90;;
40637;SDS011;26336;44.696;10.622;2022-11-20T02:06:24;47.47;;;29.33;;
40637;SDS011;26336;44.696;10.622;2022-11-20T02:09:31;53.80;;;31.23;;
40637;SDS011;26336;44.696;10.622;2022-11-20T02:12:38;47.33;;;28.93;;
40637;SDS011;26336;44.696;10.622;2022-11-20T02:16:01;50.75;;;30.83;;
40637;SDS011;26336;44.696;10.622;2022-11-20T02:19:07;47.90;;;30.83;;
40637;SDS011;26336;44.696;10.622;2022-11-20T02:22:28;52.80;;;31.73;;
40637;SDS011;26336;44.696;10.622;2022-11-20T02:25:37;47.73;;;29.70;;
40637;SDS011;26336;44.696;10.622;2022-11-20T02:28:44;48.43;;;30.07;;
40637;SDS011;26336;44.696;10.622;2022-11-20T02:31:47;49.77;;;29.03;;
40637;SDS011;26336;44.696;10.622;2022-11-20T02:34:52;50.33;;;29.67;;
40637;SDS011;26336;44.696;10.622;2022-11-20T02:37:57;47.43;;;28.20;;
40637;SDS011;26336;44.696;10.622;2022-11-20T02:41:04;51.27;;;29.77;;
40637;SDS011;26336;44.696;10.622;2022-11-20T02:44:07;52.53;;;32.00;;
40637;SDS011;26336;44.696;10.622;2022-11-20T02:47:14;49.30;;;31.67;;
40637;SDS011;26336;44.696;10.622;2022-11-20T02:50:19;49.70;;;30.57;;
40637;SDS011;26336;44.696;10.622;2022-11-20T02:53:23;46.93;;;29.23;;
40637;SDS011;26336;44.696;10.622;2022-11-20T02:56:27;49.90;;;29.63;;
40637;SDS011;26336;44.696;10.622;2022-11-20T02:59:34;42.50;;;28.07;;
40637;SDS011;26336;44.696;10.622;2022-11-20T03:02:39;43.77;;;28.50;;
40637;SDS011;26336;44.696;10.622;2022-11-20T03:05:43;45.80;;;28.73;;
40637;SDS011;26336;44.696;10.622;2022-11-20T03:08:47;43.10;;;28.17;;
40637;SDS011;26336;44.696;10.622;2022-11-20T03:11:51;42.40;;;26.50;;
40637;SDS011;26336;44.696;10.622;2022-11-20T03:14:55;44.67;;;27.87;;
40637;SDS011;26336;44.696;10.622;2022-11-20T03:17:58;41.70;;;27.10;;
40637;SDS011;26336;44.696;10.622;2022-11-20T03:21:05;44.80;;;27.73;;
40637;SDS011;26336;44.696;10.622;2022-11-20T03:24:10;43.10;;;27.87;;
40637;SDS011;26336;44.696;10.622;2022-11-20T03:27:14;42.53;;;26.93;;
40637;SDS011;26336;44.696;10.622;2022-11-20T03:30:18;41.60;;;25.87;;
40637;SDS011;26336;44.696;10.622;2022-11-20T03:33:22;44.53;;;27.97;;
40637;SDS011;26336;44.696;10.622;2022-11-20T03:36:26;47.20;;;27.80;;
40637;SDS011;26336;44.696;10.622;2022-11-20T03:39:31;43.07;;;27.93;;
40637;SDS011;26336;44.696;10.622;2022-11-20T03:42:35;40.37;;;25.93;;
40637;SDS011;26336;44.696;10.622;2022-11-20T03:45:50;40.27;;;25.63;;
40637;SDS011;26336;44.696;10.622;2022-11-20T03:48:54;41.87;;;26.07;;
40637;SDS011;26336;44.696;10.622;2022-11-20T03:51:59;37.37;;;25.27;;
40637;SDS011;26336;44.696;10.622;2022-11-20T03:55:03;38.83;;;25.37;;
40637;SDS011;26336;44.696;10.622;2022-11-20T03:58:09;39.30;;;26.43;;
40637;SDS011;26336;44.696;10.622;2022-11-20T04:01:15;36.13;;;24.03;;
40637;SDS011;26336;44.696;10.622;2022-11-20T04:04:20;39.10;;;25.93;;
40637;SDS011;26336;44.696;10.622;2022-11-20T04:07:24;37.00;;;24.83;;
40637;SDS011;26336;44.696;10.622;2022-11-20T04:10:28;36.20;;;24.97;;
40637;SDS011;26336;44.696;10.622;2022-11-20T04:13:33;38.17;;;24.50;;
40637;SDS011;26336;44.696;10.622;2022-11-20T04:16:37;37.63;;;25.20;;
40637;SDS011;26336;44.696;10.622;2022-11-20T04:19:41;38.70;;;26.33;;
40637;SDS011;26336;44.696;10.622;2022-11-20T04:22:45;38.00;;;24.47;;
40637;SDS011;26336;44.696;10.622;2022-11-20T04:25:49;38.27;;;25.03;;
40637;SDS011;26336;44.696;10.622;2022-11-20T04:28:53;38.83;;;23.60;;
40637;SDS011;26336;44.696;10.622;2022-11-20T04:32:01;35.47;;;24.63;;
40637;SDS011;26336;44.696;10.622;2022-11-20T04:35:05;37.07;;;22.60;;
40637;SDS011;26336;44.696;10.622;2022-11-20T04:38:08;35.47;;;22.87;;
40637;SDS011;26336;44.696;10.622;2022-11-20T04:41:16;37.57;;;24.77;;
40637;SDS011;26336;44.696;10.622;2022-11-20T04:44:22;34.60;;;24.17;;
40637;SDS011;26336;44.696;10.622;2022-11-20T04:47:27;36.60;;;24.60;;
40637;SDS011;26336;44.696;10.622;2022-11-20T04:50:31;33.87;;;23.53;;
40637;SDS011;26336;44.696;10.622;2022-11-20T04:53:35;35.87;;;23.93;;
40637;SDS011;26336;44.696;10.622;2022-11-20T04:56:39;32.83;;;23.50;;
40637;SDS011;26336;44.696;10.622;2022-11-20T04:59:43;35.37;;;22.97;;
40637;SDS011;26336;44.696;10.622;2022-11-20T05:02:47;33.10;;;22.03;;
40637;SDS011;26336;44.696;10.622;2022-11-20T05:05:53;33.20;;;23.13;;
40637;SDS011;26336;44.696;10.622;2022-11-20T05:08:58;32.80;;;23.23;;
40637;SDS011;26336;44.696;10.622;2022-11-20T05:12:01;32.20;;;23.53;;
40637;SDS011;26336;44.696;10.622;2022-11-20T05:15:05;29.77;;;21.93;;
40637;SDS011;26336;44.696;10.622;2022-11-20T05:18:09;28.17;;;21.73;;
40637;SDS011;26336;44.696;10.622;2022-11-20T05:21:13;31.47;;;21.37;;
40637;SDS011;26336;44.696;10.622;2022-11-20T05:24:18;34.97;;;23.27;;
40637;SDS011;26336;44.696;10.622;2022-11-20T05:27:22;33.23;;;22.77;;
40637;SDS011;26336;44.696;10.622;2022-11-20T05:30:26;31.00;;;21.17;;
40637;SDS011;26336;44.696;10.622;2022-11-20T05:33:30;31.67;;;21.43;;
40637;SDS011;26336;44.696;10.622;2022-11-20T05:36:34;30.20;;;20.20;;
40637;SDS011;26336;44.696;10.622;2022-11-20T05:39:38;31.97;;;20.77;;
40637;SDS011;26336;44.696;10.622;2022-11-20T05:42:42;31.33;;;21.67;;
40637;SDS011;26336;44.696;10.622;2022-11-20T05:45:53;30.23;;;20.63;;
40637;SDS011;26336;44.696;10.622;2022-11-20T05:48:58;29.43;;;20.63;;
40637;SDS011;26336;44.696;10.622;2022-11-20T05:52:01;28.63;;;20.13;;
40637;SDS011;26336;44.696;10.622;2022-11-20T05:55:06;26.83;;;19.80;;
40637;SDS011;26336;44.696;10.622;2022-11-20T05:58:10;30.67;;;20.60;;
40637;SDS011;26336;44.696;10.622;2022-11-20T06:01:15;31.90;;;21.23;;
40637;SDS011;26336;44.696;10.622;2022-11-20T06:04:24;31.40;;;20.77;;
40637;SDS011;26336;44.696;10.622;2022-11-20T06:07:28;31.20;;;21.03;;
40637;SDS011;26336;44.696;10.622;2022-11-20T06:10:32;32.57;;;20.33;;
40637;SDS011;26336;44.696;10.622;2022-11-20T06:13:36;29.87;;;20.53;;
40637;SDS011;26336;44.696;10.622;2022-11-20T06:16:40;29.57;;;19.17;;
40637;SDS011;26336;44.696;10.622;2022-11-20T06:19:46;29.83;;;19.60;;
40637;SDS011;26336;44.696;10.622;2022-11-20T06:22:50;30.97;;;20.90;;
40637;SDS011;26336;44.696;10.622;2022-11-20T06:25:54;31.63;;;21.27;;
40637;SDS011;26336;44.696;10.622;2022-11-20T06:28:58;30.30;;;20.50;;
40637;SDS011;26336;44.696;10.622;2022-11-20T06:32:02;29.13;;;19.90;;
40637;SDS011;26336;44.696;10.622;2022-11-20T06:35:06;27.23;;;19.97;;
40637;SDS011;26336;44.696;10.622;2022-11-20T06:38:10;26.57;;;18.60;;
40637;SDS011;26336;44.696;10.622;2022-11-20T06:41:16;28.63;;;19.80;;
40637;SDS011;26336;44.696;10.622;2022-11-20T06:44:21;27.37;;;19.93;;
40637;SDS011;26336;44.696;10.622;2022-11-20T06:47:25;26.03;;;19.67;;
40637;SDS011;26336;44.696;10.622;2022-11-20T06:50:29;28.43;;;20.60;;
40637;SDS011;26336;44.696;10.622;2022-11-20T06:53:33;25.87;;;18.40;;
40637;SDS011;26336;44.696;10.622;2022-11-20T06:56:38;28.30;;;19.20;;
40637;SDS011;26336;44.696;10.622;2022-11-20T06:59:42;27.23;;;19.90;;
40637;SDS011;26336;44.696;10.622;2022-11-20T07:02:46;34.00;;;21.03;;
40637;SDS011;26336;44.696;10.622;2022-11-20T07:05:50;30.37;;;20.83;;
40637;SDS011;26336;44.696;10.622;2022-11-20T07:08:54;27.23;;;19.27;;
40637;SDS011;26336;44.696;10.622;2022-11-20T07:11:58;30.17;;;19.83;;
40637;SDS011;26336;44.696;10.622;2022-11-20T07:15:02;28.03;;;19.47;;
40637;SDS011;26336;44.696;10.622;2022-11-20T07:18:07;27.47;;;18.93;;
40637;SDS011;26336;44.696;10.622;2022-11-20T07:21:11;25.30;;;17.30;;
40637;SDS011;26336;44.696;10.622;2022-11-20T07:24:15;23.93;;;17.03;;
40637;SDS011;26336;44.696;10.622;2022-11-20T07:27:19;25.00;;;18.63;;
40637;SDS011;26336;44.696;10.622;2022-11-20T07:30:22;27.17;;;18.77;;
40637;SDS011;26336;44.696;10.622;2022-11-20T07:33:26;25.70;;;18.83;;
40637;SDS011;26336;44.696;10.622;2022-11-20T07:36:31;23.30;;;17.13;;
40637;SDS011;26336;44.696;10.622;2022-11-20T07:39:35;24.63;;;18.03;;
40637;SDS011;26336;44.696;10.622;2022-11-20T07:42:39;24.80;;;18.33;;
40637;SDS011;26336;44.696;10.622;2022-11-20T07:45:50;23.83;;;18.53;;
40637;SDS011;26336;44.696;10.622;2022-11-20T07:48:54;24.47;;;16.83;;
40637;SDS011;26336;44.696;10.622;2022-11-20T07:51:59;21.53;;;16.90;;
40637;SDS011;26336;44.696;10.622;2022-11-20T07:55:03;26.00;;;17.77;;
40637;SDS011;26336;44.696;10.622;2022-11-20T07:58:07;20.67;;;16.07;;
40637;SDS011;26336;44.696;10.622;2022-11-20T08:01:11;23.43;;;17.23;;
40637;SDS011;26336;44.696;10.622;2022-11-20T08:04:15;22.83;;;16.83;;
40637;SDS011;26336;44.696;10.622;2022-11-20T08:07:19;23.77;;;16.47;;
40637;SDS011;26336;44.696;10.622;2022-11-20T08:10:23;22.90;;;15.67;;
40637;SDS011;26336;44.696;10.622;2022-11-20T08:13:28;23.80;;;16.70;;
40637;SDS011;26336;44.696;10.622;2022-11-20T08:16:50;27.63;;;18.60;;
40637;SDS011;26336;44.696;10.622;2022-11-20T08:19:54;39.00;;;23.73;;
40637;SDS011;26336;44.696;10.622;2022-11-20T08:23:02;40.27;;;23.73;;
40637;SDS011;26336;44.696;10.622;2022-11-20T08:26:08;40.10;;;26.63;;
40637;SDS011;26336;44.696;10.622;2022-11-20T08:29:13;47.73;;;26.73;;
40637;SDS011;26336;44.696;10.622;2022-11-20T08:32:17;48.37;;;28.60;;
40637;SDS011;26336;44.696;10.622;2022-11-20T08:35:21;46.33;;;28.07;;
40637;SDS011;26336;44.696;10.622;2022-11-20T08:38:25;49.27;;;28.93;;
40637;SDS011;26336;44.696;10.622;2022-11-20T08:41:29;50.87;;;31.30;;
40637;SDS011;26336;44.696;10.622;2022-11-20T08:44:36;54.97;;;31.77;;
40637;SDS011;26336;44.696;10.622;2022-11-20T08:47:40;52.70;;;31.43;;
40637;SDS011;26336;44.696;10.622;2022-11-20T08:50:45;55.57;;;32.63;;
40637;SDS011;26336;44.696;10.622;2022-11-20T08:53:49;59.77;;;32.77;;
40637;SDS011;26336;44.696;10.622;2022-11-20T08:56:53;59.53;;;34.50;;
40637;SDS011;26336;44.696;10.622;2022-11-20T09:00:00;60.83;;;33.00;;
40637;SDS011;26336;44.696;10.622;2022-11-20T09:03:07;59.00;;;33.80;;
40637;SDS011;26336;44.696;10.622;2022-11-20T09:06:12;61.10;;;36.63;;
40637;SDS011;26336;44.696;10.622;2022-11-20T09:09:17;57.50;;;35.00;;
40637;SDS011;26336;44.696;10.622;2022-11-20T09:12:21;59.47;;;34.90;;
40637;SDS011;26336;44.696;10.622;2022-11-20T09:15:26;66.37;;;35.27;;
40637;SDS011;26336;44.696;10.622;2022-11-20T09:18:31;62.90;;;36.57;;
40637;SDS011;26336;44.696;10.622;2022-11-20T09:21:36;61.67;;;36.77;;
40637;SDS011;26336;44.696;10.622;2022-11-20T09:24:43;66.43;;;37.53;;
40637;SDS011;26336;44.696;10.622;2022-11-20T09:27:47;65.30;;;37.37;;
40637;SDS011;26336;44.696;10.622;2022-11-20T09:30:51;65.70;;;37.33;;
40637;SDS011;26336;44.696;10.622;2022-11-20T09:33:55;63.80;;;38.23;;
40637;SDS011;26336;44.696;10.622;2022-11-20T09:36:59;60.10;;;36.40;;
40637;SDS011;26336;44.696;10.622;2022-11-20T09:40:04;65.47;;;37.87;;
40637;SDS011;26336;44.696;10.622;2022-11-20T09:46:40;64.73;;;37.37;;
40637;SDS011;26336;44.696;10.622;2022-11-20T09:56:24;62.03;;;34.93;;
40637;SDS011;26336;44.696;10.622;2022-11-20T09:59:36;61.07;;;36.20;;
40637;SDS011;26336;44.696;10.622;2022-11-20T10:06:01;59.53;;;35.47;;
40637;SDS011;26336;44.696;10.622;2022-11-20T10:12:25;54.03;;;33.87;;
40637;SDS011;26336;44.696;10.622;2022-11-20T10:25:59;52.10;;;31.52;;
40637;SDS011;26336;44.696;10.622;2022-11-20T10:29:27;51.90;;;31.40;;
40637;SDS011;26336;44.696;10.622;2022-11-20T10:32:38;55.33;;;32.17;;
40637;SDS011;26336;44.696;10.622;2022-11-20T10:35:48;57.15;;;31.80;;
40637;SDS011;26336;44.696;10.622;2022-11-20T10:38:59;57.05;;;33.08;;
40637;SDS011;26336;44.696;10.622;2022-11-20T10:42:11;59.40;;;34.03;;
40637;SDS011;26336;44.696;10.622;2022-11-20T10:46:06;53.90;;;31.58;;
40637;SDS011;26336;44.696;10.622;2022-11-20T10:48:54;52.20;;;31.52;;
40637;SDS011;26336;44.696;10.622;2022-11-20T11:01:42;48.78;;;30.23;;
40637;SDS011;26336;44.696;10.622;2022-11-20T11:04:47;52.97;;;30.63;;
40637;SDS011;26336;44.696;10.622;2022-11-20T11:07:54;58.30;;;33.45;;
40637;SDS011;26336;44.696;10.622;2022-11-20T11:11:21;54.35;;;34.30;;
40637;SDS011;26336;44.696;10.622;2022-11-20T11:14:27;54.95;;;32.70;;
40637;SDS011;26336;44.696;10.622;2022-11-20T11:17:33;56.33;;;34.35;;
40637;SDS011;26336;44.696;10.622;2022-11-20T11:20:38;57.83;;;34.38;;
40637;SDS011;26336;44.696;10.622;2022-11-20T11:23:42;61.95;;;34.67;;
40637;SDS011;26336;44.696;10.622;2022-11-20T11:26:57;58.25;;;35.17;;
40637;SDS011;26336;44.696;10.622;2022-11-20T11:30:22;70.07;;;39.30;;
40637;SDS011;26336;44.696;10.622;2022-11-20T11:33:28;60.28;;;37.38;;
40637;SDS011;26336;44.696;10.622;2022-11-20T11:36:42;62.78;;;36.53;;
40637;SDS011;26336;44.696;10.622;2022-11-20T11:39:57;63.95;;;37.08;;
40637;SDS011;26336;44.696;10.622;2022-11-20T11:43:05;64.68;;;37.55;;
40637;SDS011;26336;44.696;10.622;2022-11-20T11:46:41;59.60;;;34.42;;
40637;SDS011;26336;44.696;10.622;2022-11-20T11:50:02;56.92;;;34.25;;
40637;SDS011;26336;44.696;10.622;2022-11-20T11:53:19;64.82;;;36.80;;
40637;SDS011;26336;44.696;10.622;2022-11-20T11:56:26;59.20;;;33.92;;
40637;SDS011;26336;44.696;10.622;2022-11-20T11:59:46;62.17;;;35.17;;
40637;SDS011;26336;44.696;10.622;2022-11-20T12:03:10;64.40;;;36.92;;
40637;SDS011;26336;44.696;10.622;2022-11-20T12:06:26;56.97;;;34.85;;
40637;SDS011;26336;44.696;10.622;2022-11-20T12:09:37;57.05;;;34.83;;
40637;SDS011;26336;44.696;10.622;2022-11-20T12:12:56;62.75;;;37.13;;
40637;SDS011;26336;44.696;10.622;2022-11-20T12:16:09;62.38;;;36.92;;
40637;SDS011;26336;44.696;10.622;2022-11-20T12:19:16;73.72;;;42.03;;
40637;SDS011;26336;44.696;10.622;2022-11-20T12:25:36;66.80;;;37.83;;
40637;SDS011;26336;44.696;10.622;2022-11-20T12:28:56;56.55;;;35.53;;
40637;SDS011;26336;44.696;10.622;2022-11-20T12:42:42;54.35;;;33.22;;
40637;SDS011;26336;44.696;10.622;2022-11-20T12:46:16;60.00;;;35.88;;
40637;SDS011;26336;44.696;10.622;2022-11-20T12:49:37;57.47;;;34.97;;
40637;SDS011;26336;44.696;10.622;2022-11-20T12:52:57;59.60;;;34.88;;
40637;SDS011;26336;44.696;10.622;2022-11-20T12:56:29;59.38;;;35.60;;
40637;SDS011;26336;44.696;10.622;2022-11-20T13:00:14;57.30;;;32.55;;
40637;SDS011;26336;44.696;10.622;2022-11-20T13:06:40;56.88;;;34.25;;
40637;SDS011;26336;44.696;10.622;2022-11-20T13:09:46;59.88;;;35.35;;
40637;SDS011;26336;44.696;10.622;2022-11-20T13:12:57;66.03;;;36.97;;
40637;SDS011;26336;44.696;10.622;2022-11-20T13:19:25;64.65;;;38.30;;
40637;SDS011;26336;44.696;10.622;2022-11-20T13:22:45;66.75;;;39.75;;
40637;SDS011;26336;44.696;10.622;2022-11-20T13:25:50;64.60;;;38.40;;
40637;SDS011;26336;44.696;10.622;2022-11-20T13:29:11;60.83;;;36.85;;
40637;SDS011;26336;44.696;10.622;2022-11-20T13:32:20;62.22;;;36.17;;
40637;SDS011;26336;44.696;10.622;2022-11-20T13:35:29;60.75;;;34.72;;
40637;SDS011;26336;44.696;10.622;2022-11-20T13:38:44;62.55;;;36.03;;
40637;SDS011;26336;44.696;10.622;2022-11-20T13:42:01;56.55;;;34.20;;
40637;SDS011;26336;44.696;10.622;2022-11-20T13:45:11;58.90;;;33.80;;
40637;SDS011;26336;44.696;10.622;2022-11-20T13:48:26;54.10;;;32.03;;
40637;SDS011;26336;44.696;10.622;2022-11-20T13:51:44;50.30;;;30.63;;
40637;SDS011;26336;44.696;10.622;2022-11-20T13:58:26;52.15;;;29.40;;
40637;SDS011;26336;44.696;10.622;2022-11-20T14:01:35;53.30;;;32.90;;
40637;SDS011;26336;44.696;10.622;2022-11-20T14:04:47;54.25;;;32.90;;
40637;SDS011;26336;44.696;10.622;2022-11-20T14:07:56;59.15;;;34.47;;
40637;SDS011;26336;44.696;10.622;2022-11-20T14:11:05;58.08;;;34.90;;
40637;SDS011;26336;44.696;10.622;2022-11-20T14:14:29;59.05;;;35.45;;
40637;SDS011;26336;44.696;10.622;2022-11-20T14:17:36;61.63;;;36.85;;
40637;SDS011;26336;44.696;10.622;2022-11-20T14:20:41;60.80;;;36.78;;
40637;SDS011;26336;44.696;10.622;2022-11-20T14:23:46;56.55;;;33.42;;
40637;SDS011;26336;44.696;10.622;2022-11-20T14:26:55;60.00;;;34.35;;
40637;SDS011;26336;44.696;10.622;2022-11-20T14:30:00;59.10;;;34.67;;
40637;SDS011;26336;44.696;10.622;2022-11-20T14:33:05;54.90;;;32.88;;
40637;SDS011;26336;44.696;10.622;2022-11-20T14:36:16;58.33;;;35.38;;
40637;SDS011;26336;44.696;10.622;2022-11-20T14:39:26;60.08;;;35.65;;
40637;SDS011;26336;44.696;10.622;2022-11-20T14:42:43;58.22;;;35.97;;
40637;SDS011;26336;44.696;10.622;2022-11-20T14:45:48;59.22;;;35.40;;
40637;SDS011;26336;44.696;10.622;2022-11-20T14:49:12;57.78;;;35.63;;
40637;SDS011;26336;44.696;10.622;2022-11-20T14:52:18;60.83;;;36.33;;
40637;SDS011;26336;44.696;10.622;2022-11-20T14:55:37;53.03;;;34.00;;
40637;SDS011;26336;44.696;10.622;2022-11-20T14:58:42;61.00;;;36.05;;
40637;SDS011;26336;44.696;10.622;2022-11-20T15:01:54;63.10;;;37.45;;
40637;SDS011;26336;44.696;10.622;2022-11-20T15:05:03;57.47;;;36.17;;
40637;SDS011;26336;44.696;10.622;2022-11-20T15:08:08;60.50;;;36.35;;
40637;SDS011;26336;44.696;10.622;2022-11-20T15:11:22;58.05;;;34.97;;
40637;SDS011;26336;44.696;10.622;2022-11-20T15:14:34;61.97;;;36.53;;
40637;SDS011;26336;44.696;10.622;2022-11-20T15:17:42;56.70;;;35.58;;
40637;SDS011;26336;44.696;10.622;2022-11-20T15:20:46;63.58;;;36.95;;
40637;SDS011;26336;44.696;10.622;2022-11-20T15:23:51;57.63;;;35.17;;
40637;SDS011;26336;44.696;10.622;2022-11-20T15:26:56;58.35;;;36.45;;
40637;SDS011;26336;44.696;10.622;2022-11-20T15:30:04;63.42;;;37.88;;
40637;SDS011;26336;44.696;10.622;2022-11-20T15:33:16;61.85;;;37.00;;
40637;SDS011;26336;44.696;10.622;2022-11-20T15:36:21;59.05;;;34.53;;
40637;SDS011;26336;44.696;10.622;2022-11-20T15:39:25;61.45;;;36.40;;
40637;SDS011;26336;44.696;10.622;2022-11-20T15:42:29;58.50;;;36.35;;
40637;SDS011;26336;44.696;10.622;2022-11-20T15:45:37;56.22;;;34.33;;
40637;SDS011;26336;44.696;10.622;2022-11-20T15:48:47;57.47;;;34.63;;
40637;SDS011;26336;44.696;10.622;2022-11-20T15:52:02;55.97;;;35.10;;
40637;SDS011;26336;44.696;10.622;2022-11-20T15:55:09;53.53;;;35.85;;
40637;SDS011;26336;44.696;10.622;2022-11-20T15:58:14;53.97;;;34.17;;
40637;SDS011;26336;44.696;10.622;2022-11-20T16:01:20;59.25;;;35.45;;
40637;SDS011;26336;44.696;10.622;2022-11-20T16:04:28;53.28;;;33.95;;
40637;SDS011;26336;44.696;10.622;2022-11-20T16:07:32;54.63;;;35.33;;
40637;SDS011;26336;44.696;10.622;2022-11-20T16:10:36;53.00;;;33.03;;
40637;SDS011;26336;44.696;10.622;2022-11-20T16:13:40;53.58;;;33.28;;
40637;SDS011;26336;44.696;10.622;2022-11-20T16:20:10;55.03;;;34.30;;
40637;SDS011;26336;44.696;10.622;2022-11-20T16:23:14;63.10;;;36.47;;
40637;SDS011;26336;44.696;10.622;2022-11-20T16:26:18;60.95;;;36.65;;
40637;SDS011;26336;44.696;10.622;2022-11-20T16:29:24;68.18;;;40.03;;
40637;SDS011;26336;44.696;10.622;2022-11-20T16:32:31;63.13;;;41.40;;
40637;SDS011;26336;44.696;10.622;2022-11-20T16:35:35;64.00;;;36.47;;
40637;SDS011;26336;44.696;10.622;2022-11-20T16:38:39;60.15;;;37.25;;
40637;SDS011;26336;44.696;10.622;2022-11-20T16:41:43;54.25;;;36.10;;
40637;SDS011;26336;44.696;10.622;2022-11-20T16:44:47;56.47;;;35.88;;
40637;SDS011;26336;44.696;10.622;2022-11-20T16:47:57;60.55;;;36.75;;
40637;SDS011;26336;44.696;10.622;2022-11-20T16:51:02;55.88;;;36.58;;
40637;SDS011;26336;44.696;10.622;2022-11-20T16:54:06;60.47;;;38.70;;
40637;SDS011;26336;44.696;10.622;2022-11-20T16:57:11;63.10;;;38.05;;
40637;SDS011;26336;44.696;10.622;2022-11-20T17:00:16;58.67;;;37.20;;
40637;SDS011;26336;44.696;10.622;2022-11-20T17:03:20;59.78;;;36.50;;
40637;SDS011;26336;44.696;10.622;2022-11-20T17:06:31;58.63;;;36.42;;
40637;SDS011;26336;44.696;10.622;2022-11-20T17:09:37;61.38;;;38.83;;
40637;SDS011;26336;44.696;10.622;2022-11-20T17:12:41;54.50;;;36.65;;
40637;SDS011;26336;44.696;10.622;2022-11-20T17:15:45;60.97;;;37.85;;
40637;SDS011;26336;44.696;10.622;2022-11-20T17:18:49;59.25;;;37.45;;
40637;SDS011;26336;44.696;10.622;2022-11-20T17:21:53;66.28;;;38.63;;
40637;SDS011;26336;44.696;10.622;2022-11-20T17:24:57;66.72;;;39.15;;
40637;SDS011;26336;44.696;10.622;2022-11-20T17:28:01;63.47;;;38.53;;
40637;SDS011;26336;44.696;10.622;2022-11-20T17:31:07;64.10;;;40.40;;
40637;SDS011;26336;44.696;10.622;2022-11-20T17:34:13;71.25;;;44.60;;
40637;SDS011;26336;44.696;10.622;2022-11-20T17:37:18;65.25;;;41.60;;
40637;SDS011;26336;44.696;10.622;2022-11-20T17:40:22;71.68;;;43.67;;
40637;SDS011;26336;44.696;10.622;2022-11-20T17:43:27;62.97;;;41.15;;
40637;SDS011;26336;44.696;10.622;2022-11-20T17:46:32;63.03;;;39.53;;
40637;SDS011;26336;44.696;10.622;2022-11-20T17:49:38;61.22;;;39.55;;
40637;SDS011;26336;44.696;10.622;2022-11-20T17:52:42;67.22;;;41.05;;
40637;SDS011;26336;44.696;10.622;2022-11-20T17:55:53;60.92;;;39.60;;
40637;SDS011;26336;44.696;10.622;2022-11-20T17:59:17;59.63;;;40.00;;
40637;SDS011;26336;44.696;10.622;2022-11-20T18:02:22;60.30;;;39.53;;
40637;SDS011;26336;44.696;10.622;2022-11-20T18:05:27;66.03;;;41.08;;
40637;SDS011;26336;44.696;10.622;2022-11-20T18:08:40;63.88;;;40.90;;
40637;SDS011;26336;44.696;10.622;2022-11-20T18:11:45;73.15;;;47.38;;
40637;SDS011;26336;44.696;10.622;2022-11-20T18:14:49;77.00;;;48.28;;
40637;SDS011;26336;44.696;10.622;2022-11-20T18:17:53;70.33;;;44.10;;
40637;SDS011;26336;44.696;10.622;2022-11-20T18:20:58;66.90;;;42.55;;
40637;SDS011;26336;44.696;10.622;2022-11-20T18:24:02;68.67;;;44.33;;
40637;SDS011;26336;44.696;10.622;2022-11-20T18:27:17;69.57;;;44.35;;
40637;SDS011;26336;44.696;10.622;2022-11-20T18:30:24;66.82;;;45.15;;
40637;SDS011;26336;44.696;10.622;2022-11-20T18:33:29;69.53;;;43.07;;
40637;SDS011;26336;44.696;10.622;2022-11-20T18:36:33;70.37;;;44.10;;
40637;SDS011;26336;44.696;10.622;2022-11-20T18:39:40;68.20;;;42.23;;
40637;SDS011;26336;44.696;10.622;2022-11-20T18:42:45;65.38;;;42.25;;
40637;SDS011;26336;44.696;10.622;2022-11-20T18:46:07;66.57;;;42.10;;
40637;SDS011;26336;44.696;10.622;2022-11-20T18:49:12;66.83;;;43.07;;
40637;SDS011;26336;44.696;10.622;2022-11-20T18:52:38;63.93;;;40.83;;
40637;SDS011;26336;44.696;10.622;2022-11-20T18:55:43;62.33;;;40.60;;
40637;SDS011;26336;44.696;10.622;2022-11-20T18:58:49;64.80;;;41.27;;
40637;SDS011;26336;44.696;10.622;2022-11-20T19:01:53;67.77;;;41.90;;
40637;SDS011;26336;44.696;10.622;2022-11-20T19:04:57;65.70;;;41.17;;
40637;SDS011;26336;44.696;10.622;2022-11-20T19:08:01;68.73;;;41.80;;